Time;durP1;ratioP1;P1;durP2;ratioP2;P2;SDS_P1;SDS_P2;PMS_P1;PMS_P2;Temp;Humidity;BMP_temperature;BMP_pressure;BME280_temperature;BME280_humidity;BME280_pressure;Samples;Min_cycle;Max_cycle;Signal;HPM_P1;HPM_P2
2021/06/06 00:02:16;;;;;;;9.63;4.68;;;;;;;;;;5106186;28;20078;-87
2021/06/06 00:04:44;;;;;;;9.68;5.10;;;;;;;;;;5103743;28;20055;-87
2021/06/06 00:07:15;;;;;;;5.68;4.22;;;;;;;;;;5103069;28;20143;-87
2021/06/06 00:09:43;;;;;;;9.73;4.18;;;;;;;;;;5104929;28;20135;-87
2021/06/06 00:12:10;;;;;;;8.77;4.55;;;;;;;;;;5105015;28;20082;-87
2021/06/06 00:14:40;;;;;;;8.38;5.25;;;;;;;;;;5103428;28;20146;-87
2021/06/06 00:17:09;;;;;;;7.95;4.75;;;;;;;;;;5104102;28;20052;-87
2021/06/06 00:19:37;;;;;;;5.57;4.47;;;;;;;;;;5104543;28;20052;-86
2021/06/06 00:22:05;;;;;;;9.35;4.63;;;;;;;;;;5104731;28;20058;-87
2021/06/06 00:24:34;;;;;;;7.43;3.72;;;;;;;;;;5104590;28;20154;-86
2021/06/06 00:27:01;;;;;;;8.38;4.75;;;;;;;;;;5104601;28;20071;-87
2021/06/06 00:29:28;;;;;;;6.57;4.38;;;;;;;;;;5104865;28;20055;-87
2021/06/06 00:31:56;;;;;;;9.00;3.97;;;;;;;;;;5105495;28;20138;-86
2021/06/06 00:34:24;;;;;;;4.45;3.70;;;;;;;;;;5104126;28;20637;-87
2021/06/06 00:36:51;;;;;;;7.85;3.85;;;;;;;;;;5104437;28;20477;-87
2021/06/06 00:39:18;;;;;;;10.32;4.28;;;;;;;;;;5104618;28;20090;-87
2021/06/06 00:41:47;;;;;;;8.27;4.15;;;;;;;;;;5108170;28;20102;-87
2021/06/06 00:44:15;;;;;;;5.18;4.10;;;;;;;;;;5108616;28;20134;-87
2021/06/06 00:46:46;;;;;;;7.35;3.97;;;;;;;;;;5108974;28;20464;-87
2021/06/06 00:49:13;;;;;;;5.47;4.20;;;;;;;;;;5111010;28;20048;-87
2021/06/06 00:51:43;;;;;;;6.07;4.05;;;;;;;;;;5109105;28;20406;-86
2021/06/06 00:54:15;;;;;;;6.93;4.38;;;;;;;;;;5108299;28;20083;-87
2021/06/06 00:56:48;;;;;;;7.07;4.50;;;;;;;;;;5107656;28;20576;-86
2021/06/06 00:59:18;;;;;;;8.63;4.05;;;;;;;;;;5108989;28;20055;-87
2021/06/06 01:01:45;;;;;;;8.07;4.47;;;;;;;;;;5107875;28;20135;-87
2021/06/06 01:04:13;;;;;;;13.05;4.22;;;;;;;;;;5109474;28;20058;-87
2021/06/06 01:06:42;;;;;;;5.45;4.15;;;;;;;;;;5109683;28;20086;-87
2021/06/06 01:09:11;;;;;;;10.82;4.95;;;;;;;;;;5109189;28;20103;-87
2021/06/06 01:11:39;;;;;;;7.00;4.10;;;;;;;;;;5109224;28;20281;-87
2021/06/06 01:14:15;;;;;;;9.05;4.45;;;;;;;;;;5108494;28;20051;-87
2021/06/06 01:16:58;;;;;;;5.03;3.95;;;;;;;;;;5108415;28;20535;-88
2021/06/06 01:19:34;;;;;;;7.25;4.38;;;;;;;;;;5108043;28;20075;-87
2021/06/06 01:22:19;;;;;;;9.65;4.20;;;;;;;;;;5107511;28;20407;-87
2021/06/06 01:25:06;;;;;;;7.25;4.03;;;;;;;;;;5107512;28;20143;-87
2021/06/06 01:27:36;;;;;;;6.25;4.15;;;;;;;;;;5111547;28;20055;-87
2021/06/06 01:30:09;;;;;;;10.95;5.57;;;;;;;;;;5109329;28;20768;-87
2021/06/06 01:32:38;;;;;;;12.65;4.80;;;;;;;;;;5109426;28;20097;-87
2021/06/06 01:35:12;;;;;;;8.02;5.05;;;;;;;;;;5108908;28;20399;-87
2021/06/06 01:37:42;;;;;;;10.68;5.30;;;;;;;;;;5109675;28;20087;-88
2021/06/06 01:40:15;;;;;;;10.43;6.28;;;;;;;;;;5108730;28;20341;-88
2021/06/06 01:42:47;;;;;;;13.18;5.25;;;;;;;;;;5108567;28;20131;-88
2021/06/06 01:45:17;;;;;;;11.18;5.45;;;;;;;;;;5108877;28;20128;-88
2021/06/06 01:47:47;;;;;;;9.43;5.63;;;;;;;;;;5107874;28;20128;-88
2021/06/06 01:50:25;;;;;;;11.68;5.68;;;;;;;;;;5108104;28;20632;-87
2021/06/06 01:52:53;;;;;;;10.50;4.97;;;;;;;;;;5108758;28;20586;-88
2021/06/06 01:55:23;;;;;;;11.02;5.25;;;;;;;;;;5107665;28;20156;-87
2021/06/06 01:57:51;;;;;;;7.60;5.05;;;;;;;;;;5107593;28;20480;-88
2021/06/06 02:00:25;;;;;;;8.77;5.28;;;;;;;;;;5106931;28;20083;-87
2021/06/06 02:02:53;;;;;;;9.25;4.72;;;;;;;;;;5107055;28;20251;-87
2021/06/06 02:05:21;;;;;;;10.38;5.68;;;;;;;;;;5106672;28;20511;-87
2021/06/06 02:07:50;;;;;;;11.13;5.43;;;;;;;;;;5106971;28;20094;-87
2021/06/06 02:10:29;;;;;;;9.25;5.40;;;;;;;;;;5105977;28;20140;-87
2021/06/06 02:13:17;;;;;;;8.27;5.30;;;;;;;;;;5106154;28;20075;-88
2021/06/06 02:15:44;;;;;;;7.95;5.13;;;;;;;;;;5106546;28;20143;-87
2021/06/06 02:18:12;;;;;;;13.50;5.40;;;;;;;;;;5107643;28;20099;-86
2021/06/06 02:20:44;;;;;;;9.48;5.15;;;;;;;;;;5107453;28;20109;-87
2021/06/06 02:23:14;;;;;;;7.72;5.03;;;;;;;;;;5108955;28;20051;-88
2021/06/06 02:25:42;;;;;;;8.02;4.45;;;;;;;;;;5105936;28;20109;-87
2021/06/06 02:28:19;;;;;;;11.88;5.38;;;;;;;;;;5107805;28;20803;-86
2021/06/06 02:31:03;;;;;;;10.68;5.80;;;;;;;;;;5106470;28;20246;-87
2021/06/06 02:33:36;;;;;;;10.90;5.80;;;;;;;;;;5106764;28;20050;-87
2021/06/06 02:36:08;;;;;;;12.30;5.18;;;;;;;;;;5106859;28;20047;-87
2021/06/06 02:38:38;;;;;;;7.45;5.07;;;;;;;;;;5106648;28;20104;-87
2021/06/06 02:41:05;;;;;;;10.73;5.88;;;;;;;;;;5107858;28;20472;-88
2021/06/06 02:43:41;;;;;;;12.20;5.55;;;;;;;;;;5106003;28;20076;-88
2021/06/06 02:46:09;;;;;;;13.70;5.93;;;;;;;;;;5106070;28;20142;-88
2021/06/06 02:48:39;;;;;;;11.50;4.70;;;;;;;;;;5105827;28;20062;-87
2021/06/06 02:51:09;;;;;;;8.15;5.15;;;;;;;;;;5105671;28;20155;-87
2021/06/06 02:53:46;;;;;;;8.07;5.55;;;;;;;;;;5105655;28;20128;-88
2021/06/06 02:56:15;;;;;;;9.35;5.40;;;;;;;;;;5105329;28;20059;-87
2021/06/06 02:58:44;;;;;;;10.77;5.35;;;;;;;;;;5106016;28;20079;-87
2021/06/06 03:01:16;;;;;;;9.80;5.40;;;;;;;;;;5105181;28;20452;-87
2021/06/06 03:03:43;;;;;;;12.02;5.70;;;;;;;;;;5105012;28;20106;-87
2021/06/06 03:06:17;;;;;;;6.95;4.45;;;;;;;;;;5105526;28;20496;-87
2021/06/06 03:08:45;;;;;;;11.00;5.40;;;;;;;;;;5105159;28;20147;-87
2021/06/06 03:11:13;;;;;;;6.82;4.82;;;;;;;;;;5105420;28;20354;-88
2021/06/06 03:13:43;;;;;;;15.07;5.15;;;;;;;;;;5105577;28;20127;-87
2021/06/06 03:16:11;;;;;;;9.55;5.45;;;;;;;;;;5105508;28;20047;-87
2021/06/06 03:18:40;;;;;;;15.10;5.32;;;;;;;;;;5104396;28;20620;-87
2021/06/06 03:21:18;;;;;;;10.02;5.70;;;;;;;;;;5105265;28;20514;-88
2021/06/06 03:23:57;;;;;;;8.52;4.97;;;;;;;;;;5105077;28;20453;-87
2021/06/06 03:26:24;;;;;;;8.35;5.53;;;;;;;;;;5105777;28;20102;-89
2021/06/06 03:28:52;;;;;;;11.27;4.70;;;;;;;;;;5105013;28;20617;-87
2021/06/06 03:31:28;;;;;;;17.92;5.97;;;;;;;;;;5105289;28;20499;-87
2021/06/06 03:33:57;;;;;;;9.48;5.38;;;;;;;;;;5104012;28;20550;-87
2021/06/06 03:36:26;;;;;;;9.13;5.40;;;;;;;;;;5105066;28;20172;-87
2021/06/06 03:38:54;;;;;;;8.13;5.40;;;;;;;;;;5103421;28;20143;-87
2021/06/06 03:41:23;;;;;;;9.55;5.65;;;;;;;;;;5104686;28;20556;-88
2021/06/06 03:43:50;;;;;;;9.57;4.75;;;;;;;;;;5106158;28;20091;-87
2021/06/06 03:46:19;;;;;;;7.90;4.72;;;;;;;;;;5104313;28;20139;-88
2021/06/06 03:48:46;;;;;;;11.23;5.22;;;;;;;;;;5105185;28;20485;-87
2021/06/06 03:51:14;;;;;;;11.38;4.97;;;;;;;;;;5105449;28;20130;-88
2021/06/06 03:53:42;;;;;;;11.80;5.10;;;;;;;;;;5105683;28;20134;-88
2021/06/06 03:56:10;;;;;;;11.07;5.25;;;;;;;;;;5105200;28;20087;-88
2021/06/06 03:58:38;;;;;;;7.95;4.78;;;;;;;;;;5105600;28;20673;-88
2021/06/06 04:01:05;;;;;;;10.20;5.82;;;;;;;;;;5107377;28;20055;-87
2021/06/06 04:03:32;;;;;;;12.18;4.93;;;;;;;;;;5105153;28;20051;-88
2021/06/06 04:06:01;;;;;;;9.02;5.07;;;;;;;;;;5106747;28;20134;-87
2021/06/06 04:08:28;;;;;;;10.75;5.22;;;;;;;;;;5106991;28;20078;-87
2021/06/06 04:10:55;;;;;;;9.63;5.65;;;;;;;;;;5105452;28;20055;-87
2021/06/06 04:13:23;;;;;;;8.20;4.97;;;;;;;;;;5105272;28;20056;-87
2021/06/06 04:15:51;;;;;;;10.50;5.50;;;;;;;;;;5106946;28;20126;-87
2021/06/06 04:18:20;;;;;;;8.13;4.40;;;;;;;;;;5106135;28;20063;-88
2021/06/06 04:20:48;;;;;;;10.40;4.70;;;;;;;;;;5106926;28;20101;-88
2021/06/06 04:23:16;;;;;;;8.50;4.82;;;;;;;;;;5105196;28;20094;-88
2021/06/06 04:25:43;;;;;;;15.77;5.45;;;;;;;;;;5105269;28;20142;-87
2021/06/06 04:28:10;;;;;;;9.90;4.80;;;;;;;;;;5105314;28;20151;-87
2021/06/06 04:30:39;;;;;;;7.07;4.72;;;;;;;;;;5105025;28;20104;-88
2021/06/06 04:33:09;;;;;;;9.48;5.68;;;;;;;;;;5105377;28;20156;-88
2021/06/06 04:35:37;;;;;;;9.05;4.97;;;;;;;;;;5105112;28;20134;-87
2021/06/06 04:38:05;;;;;;;7.50;4.90;;;;;;;;;;5106644;28;20134;-88
2021/06/06 04:40:32;;;;;;;7.95;4.60;;;;;;;;;;5106080;28;20163;-87
2021/06/06 04:43:00;;;;;;;13.35;5.13;;;;;;;;;;5105683;28;20071;-87
2021/06/06 04:45:28;;;;;;;7.80;4.28;;;;;;;;;;5104461;28;20693;-88
2021/06/06 04:47:55;;;;;;;10.10;4.93;;;;;;;;;;5105378;28;20500;-88
2021/06/06 04:50:23;;;;;;;10.20;4.90;;;;;;;;;;5106163;28;20040;-88
2021/06/06 04:52:51;;;;;;;12.40;4.47;;;;;;;;;;5104765;28;20075;-88
2021/06/06 04:55:20;;;;;;;7.32;4.93;;;;;;;;;;5106519;28;20152;-88
2021/06/06 04:57:47;;;;;;;7.90;5.18;;;;;;;;;;5105069;28;20146;-87
2021/06/06 05:00:17;;;;;;;9.50;4.63;;;;;;;;;;5105040;28;20130;-88
2021/06/06 05:02:45;;;;;;;15.60;5.55;;;;;;;;;;5107033;28;20343;-88
2021/06/06 05:05:12;;;;;;;6.88;4.75;;;;;;;;;;5104594;28;20499;-88
2021/06/06 05:07:40;;;;;;;8.45;5.15;;;;;;;;;;5104843;28;20142;-88
2021/06/06 05:10:08;;;;;;;7.93;4.78;;;;;;;;;;5104975;28;20407;-88
2021/06/06 05:12:36;;;;;;;9.48;5.45;;;;;;;;;;5105033;28;20048;-88
2021/06/06 05:15:04;;;;;;;10.68;5.18;;;;;;;;;;5103859;28;20128;-88
2021/06/06 05:17:31;;;;;;;7.03;4.60;;;;;;;;;;5104775;28;20532;-88
2021/06/06 05:19:58;;;;;;;7.57;5.05;;;;;;;;;;5104887;28;20142;-88
2021/06/06 05:22:25;;;;;;;11.00;5.05;;;;;;;;;;5106054;28;20143;-88
2021/06/06 05:24:53;;;;;;;10.40;4.88;;;;;;;;;;5105963;28;20134;-89
2021/06/06 05:27:20;;;;;;;13.50;5.20;;;;;;;;;;5107676;28;20226;-87
2021/06/06 05:29:47;;;;;;;7.88;4.80;;;;;;;;;;5108757;28;20130;-87
2021/06/06 05:32:15;;;;;;;9.40;4.85;;;;;;;;;;5108499;28;20130;-87
2021/06/06 05:34:43;;;;;;;8.23;4.78;;;;;;;;;;5107980;28;20056;-87
2021/06/06 05:37:14;;;;;;;11.05;4.90;;;;;;;;;;5108257;28;20122;-87
2021/06/06 05:39:42;;;;;;;24.00;5.28;;;;;;;;;;5108268;28;20134;-87
2021/06/06 05:42:10;;;;;;;12.35;4.63;;;;;;;;;;5108004;28;20051;-87
2021/06/06 05:44:37;;;;;;;14.65;5.00;;;;;;;;;;5107390;28;20131;-87
2021/06/06 05:47:06;;;;;;;13.48;5.85;;;;;;;;;;5107791;28;20078;-87
2021/06/06 05:49:34;;;;;;;7.38;4.65;;;;;;;;;;5106487;28;20054;-87
2021/06/06 05:52:02;;;;;;;6.60;4.95;;;;;;;;;;5106904;28;20460;-87
2021/06/06 05:54:29;;;;;;;8.13;4.65;;;;;;;;;;5106524;28;20083;-88
2021/06/06 05:56:56;;;;;;;5.90;4.43;;;;;;;;;;5106861;28;20098;-88
2021/06/06 05:59:23;;;;;;;9.45;4.65;;;;;;;;;;5106905;28;20143;-87
2021/06/06 06:01:51;;;;;;;12.80;5.35;;;;;;;;;;5106643;28;20082;-86
2021/06/06 06:04:18;;;;;;;8.27;4.97;;;;;;;;;;5106433;28;20069;-86
2021/06/06 06:06:46;;;;;;;9.68;5.07;;;;;;;;;;5106990;28;20101;-86
2021/06/06 06:09:16;;;;;;;13.18;5.38;;;;;;;;;;5106776;27;20753;-86
2021/06/06 06:11:43;;;;;;;9.68;4.63;;;;;;;;;;5106554;28;20817;-86
2021/06/06 06:14:10;;;;;;;7.85;5.00;;;;;;;;;;5106781;28;20430;-86
2021/06/06 06:16:39;;;;;;;6.78;5.05;;;;;;;;;;5107359;28;20134;-87
2021/06/06 06:19:08;;;;;;;12.63;5.18;;;;;;;;;;5107067;28;20048;-87
2021/06/06 06:21:36;;;;;;;9.30;4.70;;;;;;;;;;5107779;28;20523;-87
2021/06/06 06:24:04;;;;;;;8.48;5.05;;;;;;;;;;5113073;28;20134;-88
2021/06/06 06:26:31;;;;;;;10.90;5.55;;;;;;;;;;5108510;28;20438;-87
2021/06/06 06:28:58;;;;;;;6.13;4.78;;;;;;;;;;5107040;28;20466;-87
2021/06/06 06:31:26;;;;;;;6.35;4.70;;;;;;;;;;5108774;28;20083;-88
2021/06/06 06:33:53;;;;;;;12.40;5.45;;;;;;;;;;5106797;28;20164;-87
2021/06/06 06:36:22;;;;;;;6.40;5.13;;;;;;;;;;5106876;28;20070;-87
2021/06/06 06:38:51;;;;;;;7.88;4.80;;;;;;;;;;5106333;28;20474;-87
2021/06/06 06:41:19;;;;;;;11.63;4.72;;;;;;;;;;5105554;28;20160;-87
2021/06/06 06:43:46;;;;;;;8.45;5.25;;;;;;;;;;5105896;28;20083;-87
2021/06/06 06:46:14;;;;;;;9.70;4.75;;;;;;;;;;5106403;28;20077;-87
2021/06/06 06:48:41;;;;;;;11.77;5.20;;;;;;;;;;5105806;28;20158;-87
2021/06/06 06:51:09;;;;;;;8.10;5.38;;;;;;;;;;5107766;28;20055;-87
2021/06/06 06:53:39;;;;;;;33.33;6.28;;;;;;;;;;5106271;28;20130;-86
2021/06/06 06:56:07;;;;;;;9.00;5.10;;;;;;;;;;5110416;28;20158;-87
2021/06/06 06:58:35;;;;;;;11.45;4.68;;;;;;;;;;5106326;28;20567;-87
2021/06/06 07:01:02;;;;;;;22.30;5.25;;;;;;;;;;5106709;28;20056;-86
2021/06/06 07:03:31;;;;;;;6.70;4.70;;;;;;;;;;5107797;28;20051;-86
2021/06/06 07:06:00;;;;;;;10.10;5.03;;;;;;;;;;5110121;28;20052;-86
2021/06/06 07:08:31;;;;;;;7.88;5.25;;;;;;;;;;5107322;28;20075;-87
2021/06/06 07:10:58;;;;;;;13.40;5.03;;;;;;;;;;5105943;28;20043;-86
2021/06/06 07:13:26;;;;;;;10.25;4.90;;;;;;;;;;5108411;28;20054;-87
2021/06/06 07:15:58;;;;;;;7.85;5.00;;;;;;;;;;5106094;28;20051;-86
2021/06/06 07:18:27;;;;;;;14.68;5.40;;;;;;;;;;5105385;28;20454;-87
2021/06/06 07:20:56;;;;;;;16.08;5.47;;;;;;;;;;5106791;28;20134;-86
2021/06/06 07:23:26;;;;;;;22.95;5.70;;;;;;;;;;5121548;28;20075;-88
2021/06/06 07:25:55;;;;;;;11.80;5.22;;;;;;;;;;5114299;28;20057;-88
2021/06/06 07:28:24;;;;;;;8.13;4.47;;;;;;;;;;5105756;28;20067;-86
2021/06/06 07:30:52;;;;;;;10.10;5.15;;;;;;;;;;5105621;28;20048;-85
2021/06/06 07:33:23;;;;;;;9.80;4.93;;;;;;;;;;5104321;28;20089;-85
2021/06/06 07:35:52;;;;;;;11.65;4.63;;;;;;;;;;5107317;28;20048;-84
2021/06/06 07:38:21;;;;;;;6.38;4.38;;;;;;;;;;5119646;28;20043;-86
2021/06/06 07:40:48;;;;;;;9.13;4.75;;;;;;;;;;5106483;28;20059;-86
2021/06/06 07:43:19;;;;;;;31.88;5.80;;;;;;;;;;5107778;28;20047;-86
2021/06/06 07:45:47;;;;;;;10.52;5.20;;;;;;;;;;5105174;28;20171;-87
2021/06/06 07:48:14;;;;;;;7.75;5.10;;;;;;;;;;5106866;28;20052;-86
2021/06/06 07:50:44;;;;;;;12.68;5.18;;;;;;;;;;5105480;28;20051;-86
2021/06/06 07:53:12;;;;;;;11.85;5.82;;;;;;;;;;5106738;28;20177;-86
2021/06/06 07:55:39;;;;;;;12.90;5.25;;;;;;;;;;5104428;28;20047;-86
2021/06/06 07:58:07;;;;;;;12.68;6.18;;;;;;;;;;5106182;28;20564;-86
2021/06/06 08:00:36;;;;;;;6.18;4.72;;;;;;;;;;5105924;28;20051;-85
2021/06/06 08:03:04;;;;;;;6.85;5.57;;;;;;;;;;5105141;28;20066;-86
2021/06/06 08:05:31;;;;;;;10.93;4.65;;;;;;;;;;5104778;28;20197;-86
2021/06/06 08:07:58;;;;;;;8.80;4.50;;;;;;;;;;5105951;28;20485;-86
2021/06/06 08:10:27;;;;;;;12.00;5.65;;;;;;;;;;5105861;28;20715;-85
2021/06/06 08:12:55;;;;;;;7.50;5.20;;;;;;;;;;5104001;28;20047;-86
2021/06/06 08:15:23;;;;;;;12.13;4.97;;;;;;;;;;5105084;28;20094;-85
2021/06/06 08:17:51;;;;;;;14.80;5.10;;;;;;;;;;5105673;28;20043;-86
2021/06/06 08:20:21;;;;;;;24.33;4.93;;;;;;;;;;5104099;28;20087;-85
2021/06/06 08:22:48;;;;;;;7.18;4.90;;;;;;;;;;5105798;28;20172;-84
2021/06/06 08:25:17;;;;;;;9.82;4.68;;;;;;;;;;5105482;28;20086;-85
2021/06/06 08:27:44;;;;;;;12.07;4.72;;;;;;;;;;5106468;28;20082;-85
2021/06/06 08:30:14;;;;;;;7.78;4.55;;;;;;;;;;5113096;28;20043;-84
2021/06/06 08:32:42;;;;;;;6.05;4.70;;;;;;;;;;5110575;28;20143;-86
2021/06/06 08:35:09;;;;;;;7.20;4.50;;;;;;;;;;5106767;28;20562;-87
2021/06/06 08:37:38;;;;;;;9.55;4.93;;;;;;;;;;5107293;28;20150;-85
2021/06/06 08:40:10;;;;;;;6.30;4.30;;;;;;;;;;5105124;28;20047;-85
2021/06/06 08:42:39;;;;;;;8.32;4.30;;;;;;;;;;5103743;28;20071;-86
2021/06/06 08:45:21;;;;;;;61.92;9.88;;;;;;;;;;5106370;28;20136;-85
2021/06/06 08:47:50;;;;;;;7.47;4.30;;;;;;;;;;5105784;28;20130;-87
2021/06/06 08:50:20;;;;;;;15.77;5.30;;;;;;;;;;5106479;28;20052;-85
2021/06/06 08:52:58;;;;;;;7.03;4.10;;;;;;;;;;5103555;28;20150;-86
2021/06/06 08:55:44;;;;;;;7.47;4.35;;;;;;;;;;5103194;28;20050;-88
2021/06/06 08:58:29;;;;;;;5.95;3.55;;;;;;;;;;5105201;28;20122;-87
2021/06/06 09:01:02;;;;;;;10.02;4.00;;;;;;;;;;5103438;28;20101;-89
2021/06/06 09:03:30;;;;;;;5.53;4.28;;;;;;;;;;5106477;28;20620;-85
2021/06/06 09:06:04;;;;;;;35.08;7.95;;;;;;;;;;5107036;28;20130;-85
2021/06/06 09:08:33;;;;;;;6.57;4.22;;;;;;;;;;5107623;28;20327;-89
2021/06/06 09:11:04;;;;;;;8.60;4.07;;;;;;;;;;5107158;28;20585;-88
2021/06/06 09:13:31;;;;;;;8.13;3.65;;;;;;;;;;5109984;28;20100;-88
2021/06/06 09:16:02;;;;;;;5.10;3.95;;;;;;;;;;5107742;28;20186;-86
2021/06/06 09:18:29;;;;;;;7.30;3.95;;;;;;;;;;5108021;28;20146;-88
2021/06/06 09:21:08;;;;;;;15.07;4.60;;;;;;;;;;5109665;28;20086;-90
2021/06/06 09:23:35;;;;;;;7.22;4.40;;;;;;;;;;5108828;28;20139;-85
2021/06/06 09:26:05;;;;;;;6.15;3.35;;;;;;;;;;5107091;28;20078;-85
2021/06/06 09:28:33;;;;;;;12.50;3.40;;;;;;;;;;5107653;28;20135;-86
2021/06/06 09:31:04;;;;;;;5.57;3.85;;;;;;;;;;5106896;28;20047;-87
2021/06/06 09:33:34;;;;;;;6.63;4.07;;;;;;;;;;5107582;28;20061;-85
2021/06/06 09:36:04;;;;;;;10.88;3.67;;;;;;;;;;5107204;28;20052;-86
2021/06/06 09:38:35;;;;;;;10.63;4.13;;;;;;;;;;5108825;27;20044;-85
2021/06/06 09:41:11;;;;;;;6.15;4.30;;;;;;;;;;5107315;28;20152;-87
2021/06/06 09:43:42;;;;;;;12.88;3.58;;;;;;;;;;5107231;28;20047;-86
2021/06/06 09:46:09;;;;;;;20.90;3.85;;;;;;;;;;5107376;28;20047;-85
2021/06/06 09:48:41;;;;;;;6.05;3.67;;;;;;;;;;5108580;28;20135;-87
2021/06/06 09:51:28;;;;;;;6.63;4.18;;;;;;;;;;5106798;28;20540;-87
2021/06/06 09:54:06;;;;;;;11.43;4.28;;;;;;;;;;5106873;28;20472;-87
2021/06/06 09:56:35;;;;;;;6.55;3.28;;;;;;;;;;5106613;28;20130;-87
2021/06/06 09:59:15;;;;;;;3.72;3.28;;;;;;;;;;5108487;28;20545;-89
2021/06/06 10:01:50;;;;;;;4.20;3.20;;;;;;;;;;5107821;28;20059;-86
2021/06/06 10:04:21;;;;;;;14.45;4.25;;;;;;;;;;5106103;28;20359;-88
2021/06/06 10:06:49;;;;;;;4.65;3.58;;;;;;;;;;5107839;28;20174;-88
2021/06/06 10:09:16;;;;;;;5.97;3.75;;;;;;;;;;5106417;28;20130;-89
2021/06/06 10:11:49;;;;;;;8.18;3.33;;;;;;;;;;5107249;28;20047;-90
2021/06/06 10:14:24;;;;;;;5.05;3.15;;;;;;;;;;5106805;28;20047;-91
2021/06/06 10:16:54;;;;;;;4.72;3.30;;;;;;;;;;5106864;28;20125;-90
2021/06/06 10:19:24;;;;;;;3.88;3.33;;;;;;;;;;5106498;28;20154;-90
2021/06/06 10:21:53;;;;;;;8.68;3.45;;;;;;;;;;5106622;28;20153;-91
2021/06/06 10:24:30;;;;;;;5.10;3.25;;;;;;;;;;5106776;28;20140;-90
2021/06/06 10:26:59;;;;;;;5.47;3.08;;;;;;;;;;5108184;28;20083;-88
2021/06/06 10:29:27;;;;;;;9.18;2.88;;;;;;;;;;5107773;28;20480;-86
2021/06/06 10:31:55;;;;;;;4.32;3.15;;;;;;;;;;5107316;28;20055;-87
2021/06/06 10:34:31;;;;;;;9.63;3.63;;;;;;;;;;5107470;28;20047;-87
2021/06/06 10:36:58;;;;;;;7.22;2.95;;;;;;;;;;5108406;28;20131;-87
2021/06/06 10:39:30;;;;;;;3.83;2.38;;;;;;;;;;5108125;28;20221;-86
2021/06/06 10:42:18;;;;;;;4.43;2.78;;;;;;;;;;5106267;28;20081;-87
2021/06/06 10:44:51;;;;;;;6.80;3.05;;;;;;;;;;5107077;28;20093;-88
2021/06/06 10:47:24;;;;;;;4.90;3.15;;;;;;;;;;5107899;28;20448;-89
2021/06/06 10:49:57;;;;;;;8.60;3.60;;;;;;;;;;5105679;28;20056;-86
2021/06/06 10:52:28;;;;;;;6.00;2.97;;;;;;;;;;5105838;28;20410;-89
2021/06/06 10:55:22;;;;;;;3.97;2.75;;;;;;;;;;5106623;28;20572;-88
2021/06/06 10:57:49;;;;;;;3.38;2.50;;;;;;;;;;5105484;28;20100;-88
2021/06/06 11:00:24;;;;;;;8.32;2.80;;;;;;;;;;5107374;28;20055;-87
2021/06/06 11:02:51;;;;;;;3.33;2.50;;;;;;;;;;5106532;28;20126;-87
2021/06/06 11:05:37;;;;;;;16.67;4.03;;;;;;;;;;5107684;28;20988;-87
2021/06/06 11:08:15;;;;;;;5.70;3.10;;;;;;;;;;5106052;28;20130;-87
2021/06/06 11:10:51;;;;;;;5.35;2.60;;;;;;;;;;5106794;28;20055;-86
2021/06/06 11:13:31;;;;;;;4.03;2.78;;;;;;;;;;5106450;28;20054;-86
2021/06/06 11:16:02;;;;;;;3.17;2.30;;;;;;;;;;5105164;28;20512;-87
2021/06/06 11:18:29;;;;;;;4.68;2.40;;;;;;;;;;5106052;28;20126;-86
2021/06/06 11:21:01;;;;;;;7.18;2.40;;;;;;;;;;5107343;28;20144;-86
2021/06/06 11:23:38;;;;;;;6.00;2.53;;;;;;;;;;5106111;28;20058;-86
2021/06/06 11:26:35;;;;;;;5.10;2.30;;;;;;;;;;5104610;28;20056;-86
2021/06/06 11:29:09;;;;;;;6.93;2.47;;;;;;;;;;5106308;28;20094;-87
2021/06/06 11:31:36;;;;;;;4.88;2.35;;;;;;;;;;5104628;28;20086;-87
2021/06/06 11:34:10;;;;;;;2.80;2.35;;;;;;;;;;5106013;28;20254;-87
2021/06/06 11:36:38;;;;;;;4.68;2.60;;;;;;;;;;5106060;28;20134;-87
2021/06/06 11:39:11;;;;;;;6.82;2.83;;;;;;;;;;5106623;28;20457;-88
2021/06/06 11:41:39;;;;;;;6.90;2.50;;;;;;;;;;5105448;28;20135;-87
2021/06/06 11:44:14;;;;;;;3.50;2.40;;;;;;;;;;5105675;28;20100;-88
2021/06/06 11:46:43;;;;;;;4.90;2.72;;;;;;;;;;5105904;28;20133;-88
2021/06/06 11:49:29;;;;;;;5.75;2.38;;;;;;;;;;5104876;28;20134;-87
2021/06/06 11:51:58;;;;;;;5.45;2.78;;;;;;;;;;5105781;28;20153;-87
2021/06/06 11:54:33;;;;;;;5.35;2.20;;;;;;;;;;5106453;28;20225;-88
2021/06/06 11:57:05;;;;;;;5.88;2.30;;;;;;;;;;5106867;28;20586;-89
2021/06/06 11:59:54;;;;;;;3.05;2.67;;;;;;;;;;5105489;28;20123;-87
2021/06/06 12:02:27;;;;;;;3.78;2.70;;;;;;;;;;5105683;28;20138;-87
2021/06/06 12:04:57;;;;;;;2.53;2.28;;;;;;;;;;5105007;28;20108;-88
2021/06/06 12:07:30;;;;;;;4.35;2.45;;;;;;;;;;5107046;28;20138;-88
2021/06/06 12:09:59;;;;;;;4.35;2.33;;;;;;;;;;5107022;28;20118;-88
2021/06/06 12:12:28;;;;;;;5.93;2.50;;;;;;;;;;5105290;28;20079;-87
2021/06/06 12:15:11;;;;;;;4.20;2.88;;;;;;;;;;5105674;28;20079;-87
2021/06/06 12:17:39;;;;;;;5.15;2.30;;;;;;;;;;5106063;28;20054;-88
2021/06/06 12:20:24;;;;;;;6.15;2.47;;;;;;;;;;5106841;28;20075;-87
2021/06/06 12:22:52;;;;;;;;;;;;;;;;;;5108066;28;20061;-87
2021/06/06 12:25:22;;;;;;;7.13;2.45;;;;;;;;;;5105247;28;19971;-87
2021/06/06 12:27:50;;;;;;;8.50;2.83;;;;;;;;;;5105200;28;20100;-86
2021/06/06 12:30:17;;;;;;;6.28;2.78;;;;;;;;;;5103978;28;20087;-87
2021/06/06 12:33:11;;;;;;;6.25;2.30;;;;;;;;;;5103727;28;20415;-87
2021/06/06 12:35:47;;;;;;;3.97;2.50;;;;;;;;;;5101330;28;20051;-87
2021/06/06 12:38:16;;;;;;;5.00;2.67;;;;;;;;;;5103894;28;20143;-88
2021/06/06 12:40:44;;;;;;;8.57;2.70;;;;;;;;;;5105554;28;20056;-87
2021/06/06 12:43:12;;;;;;;6.40;2.85;;;;;;;;;;5105130;28;20079;-87
2021/06/06 12:45:42;;;;;;;7.85;2.50;;;;;;;;;;5103687;28;20142;-87
2021/06/06 12:48:12;;;;;;;4.55;2.90;;;;;;;;;;5103693;28;20687;-87
2021/06/06 12:50:40;;;;;;;7.05;2.13;;;;;;;;;;5103980;28;20170;-87
2021/06/06 12:53:18;;;;;;;3.50;2.45;;;;;;;;;;5104021;28;20083;-88
2021/06/06 12:55:46;;;;;;;10.82;3.10;;;;;;;;;;5101968;28;20617;-87
2021/06/06 12:58:16;;;;;;;2.63;2.30;;;;;;;;;;5104541;28;20044;-87
2021/06/06 13:00:46;;;;;;;3.08;2.30;;;;;;;;;;5106073;28;20123;-86
2021/06/06 13:03:20;;;;;;;3.90;1.92;;;;;;;;;;5104830;28;20055;-86
2021/06/06 13:05:49;;;;;;;2.50;2.30;;;;;;;;;;5106251;28;20055;-88
2021/06/06 13:08:34;;;;;;;3.33;2.13;;;;;;;;;;5104790;28;20932;-87
2021/06/06 13:11:11;;;;;;;2.95;2.30;;;;;;;;;;5104815;28;20047;-88
2021/06/06 13:13:41;;;;;;;3.75;1.90;;;;;;;;;;5104062;28;20132;-88
2021/06/06 13:16:14;;;;;;;3.33;1.98;;;;;;;;;;5103486;28;20058;-89
2021/06/06 13:18:42;;;;;;;2.97;2.20;;;;;;;;;;5103958;28;20043;-89
2021/06/06 13:21:17;;;;;;;7.07;2.95;;;;;;;;;;5100059;28;20177;-88
2021/06/06 13:23:45;;;;;;;5.60;2.45;;;;;;;;;;5091763;28;20051;-88
2021/06/06 13:26:20;;;;;;;4.50;2.45;;;;;;;;;;5104587;28;20055;-90
2021/06/06 13:29:07;;;;;;;4.43;2.10;;;;;;;;;;5084729;28;20079;-89
2021/06/06 13:31:37;;;;;;;6.03;2.40;;;;;;;;;;5105601;28;20416;-88
2021/06/06 13:34:07;;;;;;;5.30;2.72;;;;;;;;;;5092329;28;20452;-88
2021/06/06 13:36:37;;;;;;;3.80;2.40;;;;;;;;;;5079900;28;20323;-88
2021/06/06 13:39:13;;;;;;;5.53;2.42;;;;;;;;;;5086020;28;20659;-89
2021/06/06 13:41:42;;;;;;;3.40;2.35;;;;;;;;;;5094491;27;20079;-89
2021/06/06 13:44:10;;;;;;;4.05;2.50;;;;;;;;;;5093257;28;20105;-87
2021/06/06 13:46:37;;;;;;;10.35;2.70;;;;;;;;;;5094079;28;20040;-86
2021/06/06 13:49:06;;;;;;;6.97;2.65;;;;;;;;;;5099595;28;20102;-85
2021/06/06 13:51:34;;;;;;;3.05;2.60;;;;;;;;;;5103026;27;20146;-86
2021/06/06 13:54:01;;;;;;;2.75;2.55;;;;;;;;;;5098172;28;20335;-85
2021/06/06 13:56:30;;;;;;;9.13;2.97;;;;;;;;;;5099842;27;20075;-84
2021/06/06 13:58:59;;;;;;;3.97;2.30;;;;;;;;;;5097714;28;20126;-88
2021/06/06 14:01:27;;;;;;;5.35;2.42;;;;;;;;;;5102277;28;20067;-88
2021/06/06 14:03:56;;;;;;;3.40;2.47;;;;;;;;;;5098219;28;20062;-88
2021/06/06 14:06:24;;;;;;;7.35;2.75;;;;;;;;;;5101051;27;20108;-87
2021/06/06 14:08:52;;;;;;;6.60;2.40;;;;;;;;;;5100876;28;20152;-88
2021/06/06 14:11:22;;;;;;;7.53;2.90;;;;;;;;;;5105558;27;20551;-86
2021/06/06 14:13:49;;;;;;;5.03;2.70;;;;;;;;;;5096012;27;20085;-88
2021/06/06 14:16:18;;;;;;;4.88;2.65;;;;;;;;;;5096132;28;20400;-89
2021/06/06 14:18:46;;;;;;;8.98;2.45;;;;;;;;;;5099895;27;20063;-89
2021/06/06 14:21:15;;;;;;;4.55;2.60;;;;;;;;;;5095554;28;20048;-85
2021/06/06 14:23:42;;;;;;;7.22;2.60;;;;;;;;;;5086473;28;20124;-85
2021/06/06 14:26:17;;;;;;;3.85;2.70;;;;;;;;;;5089096;28;20491;-88
2021/06/06 14:28:45;;;;;;;6.68;3.00;;;;;;;;;;5097706;28;20071;-85
2021/06/06 14:31:13;;;;;;;5.53;2.50;;;;;;;;;;5090821;28;20562;-85
2021/06/06 14:33:41;;;;;;;7.05;2.85;;;;;;;;;;5087250;28;20147;-85
2021/06/06 14:36:10;;;;;;;8.13;2.90;;;;;;;;;;5100268;28;20166;-85
2021/06/06 14:38:37;;;;;;;5.00;2.55;;;;;;;;;;5099739;28;20051;-89
2021/06/06 14:41:07;;;;;;;6.65;2.80;;;;;;;;;;5094985;28;20069;-89
2021/06/06 14:43:37;;;;;;;5.13;2.58;;;;;;;;;;5089306;28;20057;-84
2021/06/06 14:46:07;;;;;;;6.13;2.58;;;;;;;;;;5094884;27;20134;-88
2021/06/06 14:48:35;;;;;;;3.53;2.50;;;;;;;;;;5100767;28;20050;-84
2021/06/06 14:51:03;;;;;;;4.18;2.40;;;;;;;;;;5096526;28;20075;-86
2021/06/06 14:53:33;;;;;;;9.13;2.83;;;;;;;;;;5091831;28;20071;-86
2021/06/06 14:56:00;;;;;;;5.30;2.40;;;;;;;;;;5098651;28;20044;-84
2021/06/06 14:58:31;;;;;;;5.93;2.45;;;;;;;;;;5101389;28;20056;-87
2021/06/06 15:01:01;;;;;;;4.53;2.58;;;;;;;;;;5097112;28;20051;-88